Keewaydin — ZCFL7 — position and weather

sailwx.info

Track history (hours):
 
Tides and Currents Weather Stations Pressure Air Temp Water Temp Dewpoint Dewpoint Depression Visibility Wind Speed Wind Dir Waves Ship Positions

Keewaydin

Last reported at 2017-Oct-20 13:22 UTC. Time now 2017-Dec-15 08:32 UTC.
Position N 37°44' W 000°17'.
Warning: this ship's position is 55 days out of date.

Length 34 m; draft 2.7 m.

MMSI: 319536000.

Date/timePositionNaut miles runAvg speedWind from/ knotsBaromVisibWave heightAir tempDewpointWater temp
2017-Oct-20 13:22N 37°44' W 000°17'3 8.4
2017-Oct-20 13:00N 37°42' W 000°19'4 8.2
2017-Oct-20 12:30N 37°39' W 000°22'4 8.2
2017-Oct-20 12:00N 37°36' W 000°26'4 8.4
2017-Oct-20 11:30N 37°33' W 000°30'4 8.1
2017-Oct-20 11:00N 37°31' W 000°34'5 7.7
2017-Oct-20 10:18N 37°27' W 000°39'3 7.8
2017-Oct-20 09:52N 37°24' W 000°42'3 7.8
2017-Oct-20 09:30N 37°22' W 000°44'4 8.4
2017-Oct-20 09:00N 37°20' W 000°48'5 9.0
2017-Oct-20 08:30N 37°17' W 000°53'5 9.2
2017-Oct-20 07:56N 37°14' W 000°58'4 9.4
2017-Oct-20 07:29N 37°12' W 001°02'215 9.0
2017-Oct-19 07:33N 36°06' W 005°18'1 9.9
2017-Oct-19 07:24N 36°06' W 005°20'3 0.3
2017-Oct-18 23:19N 36°08' W 005°21'0 0.0
2017-Oct-18 22:49N 36°08' W 005°21'0 0.0
2017-Oct-18 22:13N 36°08' W 005°21'0 0.0
2017-Oct-18 21:55N 36°08' W 005°21'0 0.0
2017-Oct-18 20:07N 36°08' W 005°21'0 0.0
2017-Oct-18 05:10N 36°08' W 005°21'0 0.0
2017-Oct-18 04:58N 36°08' W 005°21'0 0.0
2017-Oct-18 04:25N 36°08' W 005°21'0 0.0
2017-Oct-17 23:22N 36°08' W 005°21'0 0.0
2017-Oct-17 20:19N 36°08' W 005°21'1 0.2
2017-Oct-17 15:27N 36°09' W 005°22'1 1.9
2017-Oct-17 15:00N 36°08' W 005°22'3 5.9
2017-Oct-17 14:28N 36°06' W 005°19'1 1.9
2017-Oct-17 14:00N 36°06' W 005°18'217 9.0
2017-Oct-16 13:58N 37°15' W 001°01'5 9.7
2017-Oct-16 13:30N 37°18' W 000°56'5 9.6
2017-Oct-16 13:00N 37°22' W 000°52'5 9.6
2017-Oct-16 12:30N 37°25' W 000°48'5 9.4
2017-Oct-16 12:00N 37°28' W 000°43'7 9.7
2017-Oct-16 11:16N 37°33' W 000°36'310.0
2017-Oct-16 11:00N 37°34' W 000°34'5 9.9
2017-Oct-16 10:30N 37°39' W 000°31'5 9.9
2017-Oct-16 10:00N 37°43' W 000°28'  
Track history (hours):
 
Tides and Currents Weather Stations Pressure Air Temp Water Temp Dewpoint Dewpoint Depression Visibility Wind Speed Wind Dir Waves Ship Positions

Keewaydin

Last reported at 2017-Oct-20 13:22 UTC. Time now 2017-Dec-15 08:32 UTC.
Position N 37°44' W 000°17'.
Warning: this ship's position is 55 days out of date.

Length 34 m; draft 2.7 m.

MMSI: 319536000.

Date/timePositionNaut miles runAvg speedWind from/ knotsBaromVisibWave heightAir tempDewpointWater temp
2017-Oct-20 13:22N 37°44' W 000°17'3 8.4
2017-Oct-20 13:00N 37°42' W 000°19'4 8.2
2017-Oct-20 12:30N 37°39' W 000°22'4 8.2
2017-Oct-20 12:00N 37°36' W 000°26'4 8.4
2017-Oct-20 11:30N 37°33' W 000°30'4 8.1
2017-Oct-20 11:00N 37°31' W 000°34'5 7.7
2017-Oct-20 10:18N 37°27' W 000°39'3 7.8
2017-Oct-20 09:52N 37°24' W 000°42'3 7.8
2017-Oct-20 09:30N 37°22' W 000°44'4 8.4
2017-Oct-20 09:00N 37°20' W 000°48'5 9.0
2017-Oct-20 08:30N 37°17' W 000°53'5 9.2
2017-Oct-20 07:56N 37°14' W 000°58'4 9.4
2017-Oct-20 07:29N 37°12' W 001°02'215 9.0
2017-Oct-19 07:33N 36°06' W 005°18'1 9.9
2017-Oct-19 07:24N 36°06' W 005°20'3 0.3
2017-Oct-18 23:19N 36°08' W 005°21'0 0.0
2017-Oct-18 22:49N 36°08' W 005°21'0 0.0
2017-Oct-18 22:13N 36°08' W 005°21'0 0.0
2017-Oct-18 21:55N 36°08' W 005°21'0 0.0
2017-Oct-18 20:07N 36°08' W 005°21'0 0.0
2017-Oct-18 05:10N 36°08' W 005°21'0 0.0
2017-Oct-18 04:58N 36°08' W 005°21'0 0.0
2017-Oct-18 04:25N 36°08' W 005°21'0 0.0
2017-Oct-17 23:22N 36°08' W 005°21'0 0.0
2017-Oct-17 20:19N 36°08' W 005°21'1 0.2
2017-Oct-17 15:27N 36°09' W 005°22'1 1.9
2017-Oct-17 15:00N 36°08' W 005°22'3 5.9
2017-Oct-17 14:28N 36°06' W 005°19'1 1.9
2017-Oct-17 14:00N 36°06' W 005°18'217 9.0
2017-Oct-16 13:58N 37°15' W 001°01'5 9.7
2017-Oct-16 13:30N 37°18' W 000°56'5 9.6
2017-Oct-16 13:00N 37°22' W 000°52'5 9.6
2017-Oct-16 12:30N 37°25' W 000°48'5 9.4
2017-Oct-16 12:00N 37°28' W 000°43'7 9.7
2017-Oct-16 11:16N 37°33' W 000°36'310.0
2017-Oct-16 11:00N 37°34' W 000°34'5 9.9
2017-Oct-16 10:30N 37°39' W 000°31'5 9.9
2017-Oct-16 10:00N 37°43' W 000°28'  

Dump ship's entire track history